createdAt,value
2018-01-18T00:00:43.686Z,3.00
2018-01-18T00:02:47.011Z,2.90
2018-01-18T00:04:50.360Z,2.80
2018-01-18T00:06:53.897Z,2.80
2018-01-18T00:08:57.449Z,2.80
2018-01-18T00:11:00.795Z,2.90
2018-01-18T00:13:04.168Z,2.90
2018-01-18T00:15:07.490Z,2.90
2018-01-18T00:17:10.830Z,2.90
2018-01-18T00:19:14.158Z,2.80
2018-01-18T00:21:17.506Z,2.90
2018-01-18T00:23:20.841Z,2.90
2018-01-18T00:25:24.188Z,2.90
2018-01-18T00:27:27.509Z,2.90
2018-01-18T00:29:31.590Z,2.90
2018-01-18T00:31:35.046Z,2.90
2018-01-18T00:33:39.159Z,2.90
2018-01-18T00:35:43.249Z,2.90
2018-01-18T00:37:46.622Z,2.90
2018-01-18T00:39:49.959Z,3.00
2018-01-18T00:41:53.307Z,3.00
2018-01-18T00:43:56.633Z,3.00
2018-01-18T00:45:59.962Z,2.90
2018-01-18T00:48:03.285Z,3.00
2018-01-18T00:50:06.594Z,3.10
2018-01-18T00:52:09.957Z,3.10
2018-01-18T00:54:13.286Z,3.10
2018-01-18T00:56:16.630Z,3.10
2018-01-18T00:58:19.965Z,3.10
2018-01-18T01:00:23.311Z,3.20
2018-01-18T01:02:26.649Z,3.20
2018-01-18T01:04:30.000Z,3.30
2018-01-18T01:06:33.341Z,3.30
2018-01-18T01:08:36.676Z,3.30
2018-01-18T01:10:40.021Z,3.30
2018-01-18T01:12:44.126Z,3.40
2018-01-18T01:14:48.235Z,3.40
2018-01-18T01:16:52.344Z,3.40
2018-01-18T01:18:56.457Z,3.40
2018-01-18T01:21:00.611Z,3.50
2018-01-18T01:23:03.965Z,3.40
2018-01-18T01:25:08.051Z,3.50
2018-01-18T01:27:12.165Z,3.50
2018-01-18T01:29:15.869Z,3.50
2018-01-18T01:31:19.231Z,3.50
2018-01-18T01:33:22.569Z,3.50
2018-01-18T01:35:25.914Z,3.50
2018-01-18T01:37:29.488Z,3.50
2018-01-18T01:39:32.831Z,3.50
2018-01-18T01:41:36.160Z,3.60
2018-01-18T01:43:39.508Z,3.60
2018-01-18T01:45:42.831Z,3.60
2018-01-18T01:47:46.166Z,3.60
2018-01-18T01:49:49.494Z,3.70
2018-01-18T01:51:52.882Z,3.70
2018-01-18T01:53:56.249Z,3.70
2018-01-18T01:55:59.595Z,3.80
2018-01-18T01:58:04.112Z,3.80
2018-01-18T02:00:07.436Z,3.80
2018-01-18T02:02:10.781Z,3.80
2018-01-18T02:04:14.866Z,3.80
2018-01-18T02:06:18.254Z,3.80
2018-01-18T02:08:21.563Z,3.90
2018-01-18T02:10:24.915Z,3.90
2018-01-18T02:12:28.270Z,3.90
2018-01-18T02:14:31.613Z,3.90
2018-01-18T02:16:34.954Z,3.90
2018-01-18T02:18:38.312Z,3.90
2018-01-18T02:20:42.644Z,3.90
2018-01-18T02:22:45.996Z,3.90
2018-01-18T02:24:49.386Z,3.90
2018-01-18T02:26:53.025Z,4.00
2018-01-18T02:28:57.138Z,4.00
2018-01-18T02:31:00.509Z,4.00
2018-01-18T02:33:03.843Z,4.10
2018-01-18T02:35:07.387Z,4.00
2018-01-18T02:37:10.732Z,4.10
2018-01-18T02:39:14.072Z,4.00
2018-01-18T02:41:17.410Z,4.00
2018-01-18T02:43:20.743Z,4.00
2018-01-18T02:45:24.053Z,4.00
2018-01-18T02:47:27.400Z,4.10
2018-01-18T02:49:30.723Z,4.00
2018-01-18T02:51:34.072Z,4.00
2018-01-18T02:53:37.405Z,4.00
2018-01-18T02:55:43.024Z,4.00
2018-01-18T02:57:47.233Z,4.00
2018-01-18T02:59:51.041Z,4.00
2018-01-18T03:01:54.360Z,4.00
2018-01-18T03:03:58.461Z,3.90
2018-01-18T03:06:01.898Z,3.90
2018-01-18T03:08:05.257Z,3.90
2018-01-18T03:10:08.586Z,3.90
2018-01-18T03:12:11.913Z,3.90
2018-01-18T03:14:15.325Z,3.90
2018-01-18T03:16:18.661Z,3.90
2018-01-18T03:18:22.283Z,3.90
2018-01-18T03:20:25.610Z,3.90
2018-01-18T03:22:28.929Z,3.90
2018-01-18T03:24:32.288Z,3.90
2018-01-18T03:26:35.657Z,3.90
2018-01-18T03:28:38.984Z,3.90
2018-01-18T03:30:43.111Z,3.90
2018-01-18T03:32:46.462Z,3.90
2018-01-18T03:34:50.637Z,3.90
2018-01-18T03:36:54.007Z,3.90
2018-01-18T03:38:57.293Z,3.90
2018-01-18T03:41:01.408Z,3.80
2018-01-18T03:43:04.750Z,3.80
2018-01-18T03:45:08.089Z,3.80
2018-01-18T03:47:11.415Z,3.70
2018-01-18T03:49:14.754Z,3.70
2018-01-18T03:51:19.039Z,3.70
2018-01-18T03:53:22.386Z,3.70
2018-01-18T03:55:25.703Z,3.70
2018-01-18T03:57:29.010Z,3.70
2018-01-18T03:59:32.334Z,3.70
2018-01-18T04:01:35.997Z,3.60
2018-01-18T04:03:39.538Z,3.60
2018-01-18T04:05:43.969Z,3.50
2018-01-18T04:07:47.770Z,3.50
2018-01-18T04:09:51.613Z,3.50
2018-01-18T04:11:55.427Z,3.50
2018-01-18T04:13:58.760Z,3.50
2018-01-18T04:16:02.671Z,3.50
2018-01-18T04:18:06.756Z,3.40
2018-01-18T04:20:11.344Z,3.40
2018-01-18T04:22:15.452Z,3.40
2018-01-18T04:24:19.225Z,3.40
2018-01-18T04:26:22.540Z,3.40
2018-01-18T04:28:25.905Z,3.40
2018-01-18T04:30:32.812Z,3.40
2018-01-18T04:32:36.747Z,3.40
2018-01-18T04:34:40.079Z,3.30
2018-01-18T04:36:44.220Z,3.30
2018-01-18T04:38:47.614Z,3.30
2018-01-18T04:40:51.372Z,3.30
2018-01-18T04:42:54.705Z,3.30
2018-01-18T04:44:58.253Z,3.30
2018-01-18T04:47:01.937Z,3.30
2018-01-18T04:49:06.151Z,3.30
2018-01-18T04:51:10.120Z,3.30
2018-01-18T04:53:13.483Z,3.30
2018-01-18T04:55:17.163Z,3.30
2018-01-18T04:57:20.578Z,3.30
2018-01-18T04:59:23.921Z,3.20
2018-01-18T05:01:27.268Z,3.30
2018-01-18T05:03:30.808Z,3.20
2018-01-18T05:05:34.935Z,3.10
2018-01-18T05:07:39.401Z,3.10
2018-01-18T05:09:43.807Z,3.10
2018-01-18T05:11:47.551Z,3.10
2018-01-18T05:13:51.151Z,3.20
2018-01-18T05:15:57.229Z,3.10
2018-01-18T05:18:06.592Z,3.20
2018-01-18T05:20:10.220Z,3.20
2018-01-18T05:22:13.537Z,3.10
2018-01-18T05:24:16.852Z,3.20
2018-01-18T05:26:20.172Z,3.10
2018-01-18T05:28:23.722Z,3.10
2018-01-18T05:30:27.084Z,3.00
2018-01-18T05:32:30.396Z,2.90
2018-01-18T05:34:33.821Z,3.00
2018-01-18T05:36:37.183Z,3.00
2018-01-18T05:38:41.107Z,3.00
2018-01-18T05:40:44.463Z,3.00
2018-01-18T05:42:47.783Z,3.00
2018-01-18T05:44:51.109Z,2.90
2018-01-18T05:46:54.439Z,3.00
2018-01-18T05:48:59.429Z,3.00
2018-01-18T05:51:05.868Z,3.00
2018-01-18T05:53:10.796Z,3.00
2018-01-18T05:55:14.120Z,3.00
2018-01-18T05:57:17.473Z,3.00
2018-01-18T05:59:21.489Z,3.00
2018-01-18T06:01:25.154Z,3.00
2018-01-18T06:03:29.620Z,3.00
2018-01-18T06:05:32.995Z,3.00
2018-01-18T06:07:36.460Z,3.00
2018-01-18T06:09:44.772Z,2.90
2018-01-18T06:11:48.278Z,2.90
2018-01-18T06:13:51.611Z,2.90
2018-01-18T06:15:54.926Z,3.00
2018-01-18T06:17:59.260Z,3.00
2018-01-18T06:20:04.398Z,3.00
2018-01-18T06:22:07.762Z,3.00
2018-01-18T06:24:11.081Z,3.00
2018-01-18T06:26:15.171Z,3.10
2018-01-18T06:28:20.368Z,3.10
2018-01-18T06:30:24.610Z,3.10
2018-01-18T06:32:28.418Z,3.10
2018-01-18T06:34:32.503Z,3.20
2018-01-18T06:36:35.869Z,3.10
2018-01-18T06:38:39.342Z,3.20
2018-01-18T06:40:42.731Z,3.20
2018-01-18T06:42:46.075Z,3.20
2018-01-18T06:44:49.649Z,3.20
2018-01-18T06:46:52.973Z,3.30
2018-01-18T06:48:56.368Z,3.30
2018-01-18T06:51:01.723Z,3.30
2018-01-18T06:53:06.254Z,3.30
2018-01-18T06:55:09.580Z,3.30
2018-01-18T06:57:12.950Z,3.40
2018-01-18T06:59:16.529Z,3.40
2018-01-18T07:01:20.684Z,3.40
2018-01-18T07:03:24.854Z,3.50
2018-01-18T07:05:28.240Z,3.50
2018-01-18T07:07:32.350Z,3.50
2018-01-18T07:09:36.556Z,3.50
2018-01-18T07:11:39.899Z,3.50
2018-01-18T07:13:43.863Z,3.60
2018-01-18T07:15:47.454Z,3.60
2018-01-18T07:17:50.790Z,3.60
2018-01-18T07:19:54.904Z,3.70
2018-01-18T07:21:58.264Z,3.70
2018-01-18T07:24:01.584Z,3.70
2018-01-18T07:26:05.520Z,3.70
2018-01-18T07:28:08.948Z,3.80
2018-01-18T07:30:13.633Z,3.80
2018-01-18T07:32:17.443Z,3.90
2018-01-18T07:34:21.758Z,3.90
2018-01-18T07:36:25.558Z,4.00
2018-01-18T07:38:30.074Z,4.10
2018-01-18T07:40:34.231Z,4.20
2018-01-18T07:42:38.267Z,4.10
2018-01-18T07:44:41.621Z,4.20
2018-01-18T07:46:45.006Z,4.40
2018-01-18T07:48:48.402Z,4.40
2018-01-18T07:50:52.799Z,4.40
2018-01-18T07:52:56.910Z,4.40
2018-01-18T07:55:02.043Z,4.50
2018-01-18T07:57:11.891Z,4.40
2018-01-18T07:59:15.258Z,4.40
2018-01-18T08:01:18.661Z,4.60
2018-01-18T08:03:27.716Z,4.50
2018-01-18T08:05:31.023Z,4.60
2018-01-18T08:07:34.391Z,4.60
2018-01-18T08:09:37.715Z,4.70
2018-01-18T08:11:41.046Z,4.80
2018-01-18T08:13:44.364Z,4.80
2018-01-18T08:15:47.714Z,4.80
2018-01-18T08:17:51.847Z,4.90
2018-01-18T08:19:55.196Z,4.90
2018-01-18T08:21:58.521Z,5.00
2018-01-18T08:24:01.837Z,5.00
2018-01-18T08:26:05.237Z,5.00
2018-01-18T08:28:08.600Z,5.10
2018-01-18T08:30:11.903Z,5.10
2018-01-18T08:32:15.997Z,5.20
2018-01-18T08:34:19.318Z,5.10
2018-01-18T08:36:22.746Z,5.10
2018-01-18T08:38:26.914Z,5.20
2018-01-18T08:40:30.299Z,5.20
2018-01-18T08:42:33.915Z,5.20
2018-01-18T08:44:37.282Z,5.30
2018-01-18T08:46:41.522Z,5.30
2018-01-18T08:48:44.924Z,5.40
2018-01-18T08:50:48.826Z,5.40
2018-01-18T08:52:52.142Z,5.40
2018-01-18T08:54:55.484Z,5.40
2018-01-18T08:56:58.879Z,5.50
2018-01-18T08:59:02.250Z,5.60
2018-01-18T09:01:08.070Z,5.60
2018-01-18T09:03:12.009Z,5.60
2018-01-18T09:05:16.097Z,5.80
2018-01-18T09:07:19.426Z,5.80
2018-01-18T09:09:22.800Z,5.90
2018-01-18T09:11:26.878Z,6.00
2018-01-18T09:13:30.200Z,6.00
2018-01-18T09:15:34.276Z,6.10
2018-01-18T09:17:37.610Z,6.10
2018-01-18T09:19:41.711Z,6.30
2018-01-18T09:21:45.032Z,6.20
2018-01-18T09:23:48.336Z,6.30
2018-01-18T09:25:51.652Z,6.40
2018-01-18T09:27:54.958Z,6.40
2018-01-18T09:29:58.325Z,6.40
2018-01-18T09:32:01.758Z,6.40
2018-01-18T09:34:05.844Z,6.50
2018-01-18T09:36:09.195Z,6.50
2018-01-18T09:38:12.513Z,6.60
2018-01-18T09:40:15.860Z,6.70
2018-01-18T09:42:19.190Z,6.80
2018-01-18T09:44:22.593Z,7.00
2018-01-18T09:46:25.925Z,7.10
2018-01-18T09:48:30.065Z,7.20
2018-01-18T09:50:33.425Z,7.30
2018-01-18T09:52:37.404Z,7.30
2018-01-18T09:54:40.706Z,7.40
2018-01-18T09:56:44.038Z,7.50
2018-01-18T09:58:47.780Z,7.70
2018-01-18T10:00:52.007Z,7.80
2018-01-18T10:02:55.331Z,8.00
2018-01-18T10:04:58.669Z,8.10
2018-01-18T10:07:02.018Z,8.20
2018-01-18T10:09:05.339Z,8.20
2018-01-18T10:11:08.924Z,8.10
2018-01-18T10:13:12.344Z,8.00
2018-01-18T10:15:16.583Z,8.00
2018-01-18T10:17:19.982Z,7.90
2018-01-18T10:19:24.088Z,7.80
2018-01-18T10:21:27.488Z,7.80
2018-01-18T10:23:31.614Z,7.80
2018-01-18T10:25:35.751Z,7.80
2018-01-18T10:27:39.867Z,7.70
2018-01-18T10:29:43.202Z,7.70
2018-01-18T10:31:47.341Z,7.70
2018-01-18T10:33:50.736Z,7.70
2018-01-18T10:35:54.072Z,7.70
2018-01-18T10:37:59.616Z,7.70
2018-01-18T10:40:03.156Z,7.70
2018-01-18T10:42:06.800Z,8.00
2018-01-18T10:44:10.843Z,8.30
2018-01-18T10:46:14.928Z,8.80
2018-01-18T10:48:19.062Z,9.20
2018-01-18T10:50:25.126Z,9.20
2018-01-18T10:52:30.008Z,9.90
2018-01-18T10:54:33.459Z,9.90
2018-01-18T10:56:38.429Z,9.70
2018-01-18T10:58:41.816Z,9.50
2018-01-18T11:00:45.184Z,9.20
2018-01-18T11:02:48.586Z,9.00
2018-01-18T11:04:51.923Z,8.90
2018-01-18T11:06:56.943Z,8.70
2018-01-18T11:09:00.294Z,8.60
2018-01-18T11:11:04.854Z,8.50
2018-01-18T11:13:08.276Z,8.50
2018-01-18T11:15:11.601Z,8.40
2018-01-18T11:17:14.913Z,8.40
2018-01-18T11:19:18.228Z,8.40
2018-01-18T11:21:22.356Z,8.60
2018-01-18T11:23:25.717Z,8.60
2018-01-18T11:25:29.020Z,8.70
2018-01-18T11:27:32.382Z,8.90
2018-01-18T11:29:36.606Z,9.10
2018-01-18T11:31:39.991Z,9.50
2018-01-18T11:33:44.514Z,9.70
2018-01-18T11:35:48.625Z,10.00
2018-01-18T11:37:51.975Z,9.90
2018-01-18T11:39:56.238Z,10.50
2018-01-18T11:41:59.586Z,10.50
2018-01-18T11:44:04.530Z,11.20
2018-01-18T11:46:07.886Z,11.20
2018-01-18T11:48:11.302Z,11.60
2018-01-18T11:50:14.823Z,12.20
2018-01-18T11:52:18.161Z,12.60
2018-01-18T11:54:22.407Z,13.00
2018-01-18T11:56:25.797Z,13.20
2018-01-18T11:58:30.010Z,13.40
2018-01-18T12:00:33.346Z,13.40
2018-01-18T12:02:41.637Z,13.10
2018-01-18T12:04:45.024Z,13.30
2018-01-18T12:06:48.361Z,12.60
2018-01-18T12:08:52.651Z,12.20
2018-01-18T12:10:56.788Z,11.60
2018-01-18T12:13:00.511Z,11.50
2018-01-18T12:15:03.910Z,11.30
2018-01-18T12:17:08.110Z,11.20
2018-01-18T12:19:11.473Z,10.90
2018-01-18T12:21:15.580Z,10.10
2018-01-18T12:23:18.956Z,10.10
2018-01-18T12:25:23.080Z,9.60
2018-01-18T12:27:27.244Z,9.40
2018-01-18T12:29:30.558Z,9.40
2018-01-18T12:31:34.016Z,9.20
2018-01-18T12:33:37.343Z,9.00
2018-01-18T12:35:40.749Z,8.90
2018-01-18T12:37:44.353Z,8.80
2018-01-18T12:39:47.712Z,8.80
2018-01-18T12:41:51.118Z,8.70
2018-01-18T12:43:54.516Z,8.60
2018-01-18T12:45:57.896Z,8.70
2018-01-18T12:48:01.233Z,8.60
2018-01-18T12:50:04.577Z,8.60
2018-01-18T12:52:07.985Z,8.70
2018-01-18T12:54:12.275Z,8.60
2018-01-18T12:56:16.177Z,8.60
2018-01-18T12:58:22.199Z,8.60
2018-01-18T13:00:26.608Z,8.60
2018-01-18T13:02:30.206Z,8.60
2018-01-18T13:04:34.497Z,8.60
2018-01-18T13:06:37.914Z,8.60
2018-01-18T13:08:41.851Z,8.70
2018-01-18T13:10:45.999Z,8.70
2018-01-18T13:12:51.055Z,8.80
2018-01-18T13:14:54.426Z,8.70
2018-01-18T13:16:57.796Z,8.80
2018-01-18T13:19:01.269Z,8.80
2018-01-18T13:21:05.201Z,8.80
2018-01-18T13:23:09.125Z,8.90
2018-01-18T13:25:13.249Z,9.60
2018-01-18T13:27:16.638Z,9.60
2018-01-18T13:29:20.814Z,9.80
2018-01-18T13:31:24.675Z,9.70
2018-01-18T13:33:28.030Z,9.50
2018-01-18T13:35:32.259Z,9.60
2018-01-18T13:37:35.682Z,9.60
2018-01-18T13:39:39.814Z,9.50
2018-01-18T13:41:43.341Z,9.50
2018-01-18T13:43:46.744Z,9.50
2018-01-18T13:45:50.166Z,9.50
2018-01-18T13:47:53.586Z,9.50
2018-01-18T13:49:56.971Z,9.50
2018-01-18T13:52:01.302Z,9.50
2018-01-18T13:54:05.484Z,9.50
2018-01-18T13:56:11.681Z,9.50
2018-01-18T13:58:16.374Z,9.40
2018-01-18T14:00:20.460Z,9.40
2018-01-18T14:02:24.163Z,9.30
2018-01-18T14:04:27.536Z,9.30
2018-01-18T14:06:30.849Z,9.20
2018-01-18T14:08:34.230Z,9.10
2018-01-18T14:10:37.945Z,9.10
2018-01-18T14:12:44.163Z,9.00
2018-01-18T14:14:48.634Z,9.00
2018-01-18T14:16:53.435Z,9.50
2018-01-18T14:18:57.224Z,9.50
2018-01-18T14:21:00.544Z,9.80
2018-01-18T14:23:04.126Z,10.10
2018-01-18T14:25:07.500Z,10.20
2018-01-18T14:27:11.140Z,10.50
2018-01-18T14:29:14.476Z,10.50
2018-01-18T14:31:17.910Z,10.30
2018-01-18T14:33:21.278Z,10.00
2018-01-18T14:35:24.686Z,9.80
2018-01-18T14:37:28.767Z,9.90
2018-01-18T14:39:32.837Z,9.90
2018-01-18T14:41:36.937Z,10.10
2018-01-18T14:43:40.641Z,10.20
2018-01-18T14:45:44.037Z,10.50
2018-01-18T14:47:47.386Z,10.50
2018-01-18T14:49:50.729Z,10.60
2018-01-18T14:51:54.905Z,10.60
2018-01-18T14:53:58.448Z,10.60
2018-01-18T14:56:02.617Z,10.70
2018-01-18T14:58:06.158Z,10.70
2018-01-18T15:00:09.575Z,10.70
2018-01-18T15:02:13.517Z,10.60
2018-01-18T15:04:17.262Z,10.60
2018-01-18T15:06:20.676Z,10.50
2018-01-18T15:08:24.061Z,10.50
2018-01-18T15:10:27.414Z,10.50
2018-01-18T15:12:30.805Z,10.30
2018-01-18T15:14:34.194Z,10.20
2018-01-18T15:16:37.598Z,10.10
2018-01-18T15:18:40.971Z,9.90
2018-01-18T15:20:45.203Z,9.80
2018-01-18T15:22:48.633Z,9.70
2018-01-18T15:24:51.983Z,9.60
2018-01-18T15:26:55.392Z,9.50
2018-01-18T15:28:59.487Z,9.30
2018-01-18T15:31:02.846Z,9.30
2018-01-18T15:33:06.504Z,9.20
2018-01-18T15:35:09.994Z,9.10
2018-01-18T15:37:13.452Z,9.10
2018-01-18T15:39:18.135Z,9.10
2018-01-18T15:41:21.631Z,9.00
2018-01-18T15:43:25.779Z,9.00
2018-01-18T15:45:29.205Z,8.90
2018-01-18T15:47:32.746Z,8.80
2018-01-18T15:49:37.042Z,8.70
2018-01-18T15:51:41.032Z,8.60
2018-01-18T15:53:44.999Z,8.50
2018-01-18T15:55:48.422Z,8.40
2018-01-18T15:57:51.852Z,8.30
2018-01-18T15:59:55.405Z,8.20
2018-01-18T16:01:58.778Z,8.20
2018-01-18T16:04:02.170Z,8.10
2018-01-18T16:06:05.480Z,8.10
2018-01-18T16:08:09.684Z,7.90
2018-01-18T16:10:13.878Z,7.80
2018-01-18T16:12:17.258Z,7.80
2018-01-18T16:14:20.753Z,7.80
2018-01-18T16:16:25.883Z,7.70
2018-01-18T16:18:29.447Z,7.70
2018-01-18T16:20:33.896Z,7.60
2018-01-18T16:22:37.267Z,7.60
2018-01-18T16:24:40.712Z,7.50
2018-01-18T16:26:45.218Z,7.40
2018-01-18T16:28:49.583Z,7.30
2018-01-18T16:30:53.596Z,7.30
2018-01-18T16:32:56.953Z,7.20
2018-01-18T16:35:01.236Z,7.10
2018-01-18T16:37:04.631Z,7.10
2018-01-18T16:39:08.021Z,7.00
2018-01-18T16:41:11.357Z,7.00
2018-01-18T16:43:14.762Z,7.00
2018-01-18T16:45:18.194Z,7.00
2018-01-18T16:47:21.519Z,7.00
2018-01-18T16:49:25.659Z,6.80
2018-01-18T16:51:28.997Z,6.80
2018-01-18T16:53:33.137Z,6.70
2018-01-18T16:55:37.270Z,6.70
2018-01-18T16:57:40.718Z,6.60
2018-01-18T16:59:45.306Z,6.70
2018-01-18T17:01:48.638Z,6.70
2018-01-18T17:03:51.964Z,6.80
2018-01-18T17:05:56.081Z,6.80
2018-01-18T17:07:59.477Z,6.70
2018-01-18T17:10:03.640Z,6.70
2018-01-18T17:12:06.978Z,6.70
2018-01-18T17:14:10.303Z,6.60
2018-01-18T17:16:13.658Z,6.60
2018-01-18T17:18:16.978Z,6.50
2018-01-18T17:20:20.306Z,6.60
2018-01-18T17:22:23.635Z,6.60
2018-01-18T17:24:26.946Z,6.50
2018-01-18T17:26:30.314Z,6.50
2018-01-18T17:28:33.993Z,6.50
2018-01-18T17:30:38.428Z,6.50
2018-01-18T17:32:41.892Z,6.50
2018-01-18T17:34:45.244Z,6.50
2018-01-18T17:36:48.616Z,6.50
2018-01-18T17:38:52.237Z,6.40
2018-01-18T17:40:56.020Z,6.40
2018-01-18T17:42:59.987Z,6.40
2018-01-18T17:45:05.296Z,6.30
2018-01-18T17:47:08.848Z,6.30
2018-01-18T17:49:12.184Z,6.30
2018-01-18T17:51:15.658Z,6.20
2018-01-18T17:53:19.397Z,6.20
2018-01-18T17:55:23.519Z,6.20
2018-01-18T17:57:27.454Z,6.10
2018-01-18T17:59:30.846Z,6.10
2018-01-18T18:01:34.500Z,6.00
2018-01-18T18:03:38.614Z,5.90
2018-01-18T18:05:42.713Z,5.80
2018-01-18T18:07:49.237Z,5.80
2018-01-18T18:09:52.593Z,5.80
2018-01-18T18:11:56.575Z,5.80
2018-01-18T18:14:00.532Z,5.70
2018-01-18T18:16:08.466Z,5.70
2018-01-18T18:18:13.863Z,5.80
2018-01-18T18:20:19.732Z,5.80
2018-01-18T18:22:27.006Z,5.80
2018-01-18T18:24:32.959Z,5.80
2018-01-18T18:26:38.821Z,5.80
2018-01-18T18:28:43.100Z,5.90
2018-01-18T18:30:50.191Z,6.00
2018-01-18T18:32:58.375Z,6.00
2018-01-18T18:35:06.926Z,5.90
2018-01-18T18:37:15.173Z,5.90
2018-01-18T18:39:18.780Z,5.90
2018-01-18T18:41:23.266Z,5.90
2018-01-18T18:43:28.306Z,5.90
2018-01-18T18:45:34.852Z,5.80
2018-01-18T18:47:42.566Z,5.80
2018-01-18T18:52:05.192Z,5.70
2018-01-18T18:54:10.214Z,5.70
2018-01-18T18:56:16.468Z,5.80
2018-01-18T18:58:21.031Z,5.80
2018-01-18T19:00:24.623Z,5.80
2018-01-18T19:02:29.519Z,5.80
2018-01-18T19:04:32.917Z,5.80
2018-01-18T19:06:37.612Z,5.80
2018-01-18T19:08:42.002Z,5.80
2018-01-18T19:10:45.971Z,5.80
2018-01-18T19:12:49.383Z,5.80
2018-01-18T19:14:54.906Z,5.70
2018-01-18T19:16:58.265Z,5.70
2018-01-18T19:19:01.622Z,5.70
2018-01-18T19:21:05.839Z,5.70
2018-01-18T19:23:09.766Z,5.70
2018-01-18T19:25:13.524Z,5.70
2018-01-18T19:27:16.942Z,5.70
2018-01-18T19:29:20.481Z,5.70
2018-01-18T19:31:24.792Z,5.80
2018-01-18T19:33:28.407Z,5.80
2018-01-18T19:35:32.544Z,5.80
2018-01-18T19:37:36.041Z,5.90
2018-01-18T19:39:39.732Z,5.90
2018-01-18T19:41:43.257Z,6.00
2018-01-18T19:43:46.928Z,6.00
2018-01-18T19:45:51.278Z,6.10
2018-01-18T19:47:54.793Z,6.10
2018-01-18T19:49:58.188Z,6.10
2018-01-18T19:52:01.727Z,6.10
2018-01-18T19:54:05.243Z,6.20
2018-01-18T19:56:09.516Z,6.10
2018-01-18T19:58:13.999Z,6.10
2018-01-18T20:00:17.504Z,6.10
2018-01-18T20:02:21.809Z,6.00
2018-01-18T20:04:25.322Z,6.00
2018-01-18T20:06:28.682Z,6.10
2018-01-18T20:08:32.843Z,6.10
2018-01-18T20:10:37.016Z,6.10
2018-01-18T20:12:40.448Z,6.10
2018-01-18T20:14:43.821Z,6.10
2018-01-18T20:16:47.188Z,6.10
2018-01-18T20:18:50.915Z,6.00
2018-01-18T20:20:56.001Z,6.00
2018-01-18T20:22:59.446Z,6.00
2018-01-18T20:25:03.772Z,6.00
2018-01-18T20:27:07.135Z,6.00
2018-01-18T20:29:10.566Z,6.00
2018-01-18T20:31:14.234Z,6.00
2018-01-18T20:33:18.531Z,5.90
2018-01-18T20:35:22.525Z,5.90
2018-01-18T20:37:27.082Z,5.90
2018-01-18T20:39:30.575Z,5.90
2018-01-18T20:41:34.876Z,5.90
2018-01-18T20:43:38.465Z,5.90
2018-01-18T20:45:44.000Z,5.90
2018-01-18T20:47:48.327Z,5.90
2018-01-18T20:49:53.057Z,5.90
2018-01-18T20:51:56.486Z,5.90
2018-01-18T20:54:00.350Z,5.90
2018-01-18T20:56:03.744Z,5.90
2018-01-18T20:58:07.223Z,6.00
2018-01-18T21:00:11.278Z,5.80
2018-01-18T21:02:18.755Z,5.90
2018-01-18T21:04:22.426Z,5.90
2018-01-18T21:06:25.982Z,5.90
2018-01-18T21:08:29.667Z,5.90
2018-01-18T21:10:34.045Z,5.90
2018-01-18T21:12:37.608Z,5.90
2018-01-18T21:14:42.279Z,5.90
2018-01-18T21:16:47.635Z,5.90
2018-01-18T21:18:51.412Z,5.90
2018-01-18T21:20:54.896Z,5.90
2018-01-18T21:22:58.313Z,5.90
2018-01-18T21:25:03.925Z,5.90
2018-01-18T21:27:08.280Z,5.80
2018-01-18T21:29:12.497Z,5.90
2018-01-18T21:31:16.479Z,5.90
2018-01-18T21:33:20.981Z,5.90
2018-01-18T21:35:24.427Z,5.90
2018-01-18T21:37:29.560Z,5.90
2018-01-18T21:39:34.407Z,5.90
2018-01-18T21:41:37.830Z,5.90
2018-01-18T21:43:41.226Z,5.80
2018-01-18T21:45:45.005Z,5.90
2018-01-18T21:47:48.418Z,5.90
2018-01-18T21:49:51.818Z,5.90
2018-01-18T21:51:56.060Z,5.90
2018-01-18T21:53:59.987Z,5.90
2018-01-18T21:56:03.511Z,5.90
2018-01-18T21:58:06.980Z,6.00
2018-01-18T22:00:12.235Z,6.00
2018-01-18T22:02:15.652Z,6.00
2018-01-18T22:04:23.196Z,6.00
2018-01-18T22:06:27.647Z,6.10
2018-01-18T22:08:36.275Z,6.10
2018-01-18T22:10:41.980Z,6.00
2018-01-18T22:12:47.746Z,5.90
2018-01-18T22:14:52.905Z,5.90
2018-01-18T22:17:02.144Z,5.90
2018-01-18T22:19:06.393Z,5.90
2018-01-18T22:21:10.687Z,6.00
2018-01-18T22:23:16.903Z,6.00
2018-01-18T22:25:20.597Z,5.90
2018-01-18T22:27:24.363Z,6.00
2018-01-18T22:29:27.793Z,5.90
2018-01-18T22:31:31.407Z,5.90
2018-01-18T22:33:34.902Z,5.90
2018-01-18T22:35:38.319Z,6.00
2018-01-18T22:37:42.537Z,5.90
2018-01-18T22:39:45.928Z,5.90
2018-01-18T22:41:50.160Z,5.90
2018-01-18T22:43:53.649Z,5.80
2018-01-18T22:45:57.841Z,5.80
2018-01-18T22:48:02.130Z,5.80
2018-01-18T22:50:05.587Z,5.80
2018-01-18T22:52:09.081Z,5.80
2018-01-18T22:54:13.264Z,5.80
2018-01-18T22:56:17.720Z,5.80
2018-01-18T22:58:23.118Z,5.80
2018-01-18T23:00:27.307Z,5.90
2018-01-18T23:02:31.543Z,5.90
2018-01-18T23:04:35.728Z,5.90
2018-01-18T23:06:39.105Z,5.90
2018-01-18T23:08:42.556Z,5.80
2018-01-18T23:10:47.983Z,5.80
2018-01-18T23:12:51.392Z,5.80
2018-01-18T23:14:55.527Z,5.70
2018-01-18T23:16:58.934Z,5.70
2018-01-18T23:19:02.659Z,5.60
2018-01-18T23:21:06.837Z,5.50
2018-01-18T23:23:10.606Z,5.50
2018-01-18T23:25:14.043Z,5.40
2018-01-18T23:27:17.457Z,5.40
2018-01-18T23:29:20.905Z,5.30
2018-01-18T23:31:24.324Z,5.20
2018-01-18T23:33:31.337Z,5.10
2018-01-18T23:35:34.856Z,5.10
2018-01-18T23:37:38.268Z,5.10
2018-01-18T23:39:42.452Z,5.10
2018-01-18T23:41:45.879Z,5.10
2018-01-18T23:43:50.880Z,5.10
2018-01-18T23:45:54.300Z,5.10
2018-01-18T23:48:02.174Z,5.00
2018-01-18T23:50:05.614Z,5.00
2018-01-18T23:52:09.428Z,4.90
2018-01-18T23:54:12.786Z,4.90
2018-01-18T23:56:16.173Z,4.90
2018-01-18T23:58:19.561Z,4.80
